6Y0 weather

Moorestown Airpark
Moorestown, Michigan, United States

Public forecast

Using degrees Fahrenheit for public forecast. Weather courtesy of forecast.io.

Closest aviation weather report (METAR) to Moorestown Airpark

Closest report is Roscommon County - Blodgett Memorial Airport, 15.2 nm (28.2 km) ESE. Retrieved 2019/10/17 20:53 UTC (31 minutes ago):

KHTL 172053Z AUTO 33011G23KT 10SM SCT034 OVC042 08/00 A2993 RMK AO2 SLP144 T00780000 53007

Closest aviation forecast (TAF) to Moorestown Airpark

Closest forecast is Cherry Capital Airport, 30.1 nm (55.8 km) NW. Retrieved 2019/10/17 18:33 UTC (3 hours ago):

TAF KTVC 171731Z 1718/1818 34011KT P6SM SCT025 BKN035 FM172000 33011KT P6SM BKN035 FM172300 34007KT P6SM BKN060 FM180200 35005KT P6SM SCT080